Terminal Aerodrome Forecast
Issued by NWS

Home | Current Version | Previous Version | Text Only | Print | Product List | Glossary On
Versions: 1 2 3 4 5 6 7 8 9 10 11 12 13 14 15 16 17 18
000
FTUS43 KGRB 172332
TAFMTW
TAF
KMTW 172332Z 1800/1824 31007KT 3SM -SHRA BR OVC005
     FM180100 32005KT 5SM BR OVC007
     FM180300 27004KT 5SM BR SCT008 BKN015
     FM180600 26005KT 3SM BR SCT015 OVC025
     FM181100 23008KT 5SM BR OVC007
     FM181800 22010KT P6SM SCT010=

USA.gov is the U.S. government's official web portal to all federal, state and local government web resources and services.